Time;durP1;ratioP1;P1;durP2;ratioP2;P2;SDS_P1;SDS_P2;PMS_P1;PMS_P2;Temp;Humidity;BMP_temperature;BMP_pressure;BME280_temperature;BME280_humidity;BME280_pressure;Samples;Min_cycle;Max_cycle;Signal;HPM_P1;HPM_P2
2021/03/19 00:00:49;;;;;;;10.13;6.60;;;3.20;72.00;;;;;;5015204;28;20211;-60
2021/03/19 00:03:17;;;;;;;9.23;7.37;;;3.20;72.00;;;;;;5015072;28;20215;-60
2021/03/19 00:05:44;;;;;;;9.90;6.90;;;3.30;71.80;;;;;;4996470;28;20211;-61
2021/03/19 00:08:11;;;;;;;9.03;7.73;;;3.30;71.50;;;;;;5014792;28;20550;-60
2021/03/19 00:10:37;;;;;;;10.57;7.47;;;3.30;71.70;;;;;;5012524;28;20208;-60
2021/03/19 00:13:10;;;;;;;15.10;8.57;;;3.30;71.80;;;;;;4998116;28;20645;-60
2021/03/19 00:15:38;;;;;;;10.50;7.97;;;3.20;72.00;;;;;;5014182;28;20608;-60
2021/03/19 00:18:08;;;;;;;9.80;7.43;;;3.20;72.00;;;;;;5007059;28;20216;-60
2021/03/19 00:20:41;;;;;;;10.97;7.50;;;3.20;72.20;;;;;;5013199;28;20641;-60
2021/03/19 00:23:09;;;;;;;11.00;7.17;;;3.20;72.40;;;;;;5007114;28;20949;-60
2021/03/19 00:25:37;;;;;;;8.47;7.03;;;3.20;72.50;;;;;;5014814;28;20673;-60
2021/03/19 00:28:05;;;;;;;8.90;6.87;;;3.20;72.40;;;;;;5011667;28;20211;-60
2021/03/19 00:30:32;;;;;;;10.27;7.37;;;3.20;72.20;;;;;;4997215;28;20627;-60
2021/03/19 00:33:02;;;;;;;8.70;7.00;;;3.10;72.10;;;;;;4985215;28;20223;-60
2021/03/19 00:35:29;;;;;;;10.10;6.63;;;3.10;72.10;;;;;;5012186;28;20252;-60
2021/03/19 00:37:55;;;;;;;10.40;6.60;;;3.10;72.20;;;;;;5013857;28;20570;-60
2021/03/19 00:40:23;;;;;;;9.67;7.03;;;3.00;72.20;;;;;;4992808;28;20292;-60
2021/03/19 00:42:50;;;;;;;10.70;6.83;;;3.00;72.30;;;;;;5011883;28;20258;-60
2021/03/19 00:45:17;;;;;;;12.53;7.93;;;3.00;72.50;;;;;;5011770;28;20208;-60
2021/03/19 00:47:49;;;;;;;11.13;8.20;;;2.90;72.80;;;;;;5009902;28;20208;-60
2021/03/19 00:50:21;;;;;;;9.27;7.43;;;2.90;73.00;;;;;;5014434;28;20269;-60
2021/03/19 00:52:47;;;;;;;12.73;8.30;;;2.90;73.20;;;;;;5012526;28;20228;-60
2021/03/19 00:55:15;;;;;;;11.50;8.60;;;2.90;73.50;;;;;;5012317;28;20204;-60
2021/03/19 00:57:41;;;;;;;12.83;8.90;;;2.80;74.00;;;;;;5012321;28;20203;-60
2021/03/19 01:00:11;;;;;;;9.80;7.70;;;2.80;75.00;;;;;;5014473;28;20611;-60
2021/03/19 01:02:37;;;;;;;10.10;6.93;;;2.80;75.30;;;;;;5013623;28;20646;-60
2021/03/19 01:05:08;;;;;;;11.60;7.43;;;2.80;75.00;;;;;;5012035;28;20680;-60
2021/03/19 01:07:35;;;;;;;10.60;7.57;;;2.80;74.90;;;;;;5014089;28;20218;-60
2021/03/19 01:10:11;;;;;;;10.13;7.63;;;2.70;74.80;;;;;;4996566;28;20222;-60
2021/03/19 01:12:39;;;;;;;9.43;7.90;;;2.70;75.10;;;;;;5012199;28;20334;-60
2021/03/19 01:15:07;;;;;;;14.23;9.03;;;2.70;75.30;;;;;;5009534;28;20259;-60
2021/03/19 01:17:35;;;;;;;11.43;7.83;;;2.70;75.50;;;;;;5013559;28;20207;-60
2021/03/19 01:20:06;;;;;;;15.57;8.97;;;2.70;75.40;;;;;;4996677;28;20214;-60
2021/03/19 01:22:33;;;;;;;13.53;8.23;;;2.70;75.30;;;;;;5013710;28;20240;-60
2021/03/19 01:25:00;;;;;;;10.77;8.33;;;2.70;75.40;;;;;;5007617;28;20303;-60
2021/03/19 01:27:27;;;;;;;11.93;8.27;;;2.70;75.30;;;;;;5012854;28;20691;-60
2021/03/19 01:29:53;;;;;;;8.83;7.60;;;2.80;75.30;;;;;;5012376;28;20218;-60
2021/03/19 01:32:20;;;;;;;9.47;6.90;;;2.90;75.10;;;;;;5008919;28;20537;-60
2021/03/19 01:34:47;;;;;;;9.60;7.60;;;2.90;74.80;;;;;;5008842;28;20223;-60
2021/03/19 01:37:13;;;;;;;10.43;8.13;;;2.90;74.60;;;;;;5013548;28;20524;-60
2021/03/19 01:39:40;;;;;;;11.47;7.67;;;2.90;75.30;;;;;;5013562;28;20219;-60
2021/03/19 01:42:09;;;;;;;11.57;7.40;;;2.90;74.70;;;;;;5013695;28;20219;-60
2021/03/19 01:45:09;;;;;;;12.63;8.13;;;3.00;74.80;;;;;;5013040;28;20693;-60
2021/03/19 01:48:14;;;;;;;11.87;7.50;;;3.10;74.80;;;;;;5009543;28;20637;-60
2021/03/19 01:51:18;;;;;;;9.70;6.83;;;3.10;74.70;;;;;;5010291;28;20207;-60
2021/03/19 01:54:23;;;;;;;9.87;7.23;;;3.10;74.70;;;;;;5010998;28;20245;-60
2021/03/19 01:57:27;;;;;;;9.23;7.47;;;3.20;74.70;;;;;;5004564;28;20212;-60
2021/03/19 02:00:30;;;;;;;9.30;7.10;;;3.10;74.60;;;;;;5006150;28;20208;-60
2021/03/19 02:03:36;;;;;;;9.00;6.83;;;3.20;74.80;;;;;;5000377;28;20551;-60
2021/03/19 02:06:40;;;;;;;10.23;7.07;;;3.20;74.80;;;;;;5013384;28;20211;-60
2021/03/19 02:09:44;;;;;;;9.87;6.63;;;3.20;74.70;;;;;;5009330;28;20680;-60
2021/03/19 02:12:48;;;;;;;10.57;7.60;;;3.10;74.60;;;;;;5012586;28;20593;-60
2021/03/19 02:15:52;;;;;;;9.77;7.23;;;3.20;74.70;;;;;;5002920;28;20318;-59
2021/03/19 02:19:04;;;;;;;9.17;7.67;;;3.20;74.60;;;;;;5002217;28;20274;-60
2021/03/19 02:22:08;;;;;;;10.77;7.50;;;3.20;74.50;;;;;;4970325;28;20660;-60
2021/03/19 02:25:12;;;;;;;12.33;8.23;;;3.10;74.50;;;;;;4965519;28;20304;-60
2021/03/19 02:28:19;;;;;;;9.93;7.07;;;3.10;74.60;;;;;;4964254;28;20225;-60
2021/03/19 02:31:13;;;;;;;12.93;7.77;;;3.10;74.70;;;;;;4986202;28;20275;-60
2021/03/19 02:34:00;;;;;;;14.33;7.80;;;3.00;74.90;;;;;;4968750;28;20297;-60
2021/03/19 02:36:29;;;;;;;10.83;8.03;;;2.90;75.30;;;;;;4969173;28;20205;-60
2021/03/19 02:38:56;;;;;;;10.03;7.37;;;2.90;75.50;;;;;;4971469;28;20244;-60
2021/03/19 02:41:23;;;;;;;11.43;8.60;;;2.90;75.70;;;;;;4974223;28;20283;-60
2021/03/19 02:43:50;;;;;;;9.27;7.43;;;2.90;76.00;;;;;;4971304;28;20284;-60
2021/03/19 02:46:17;;;;;;;10.70;7.50;;;2.90;76.10;;;;;;4970225;28;20613;-60
2021/03/19 02:48:44;;;;;;;8.07;6.63;;;2.90;76.10;;;;;;4970764;28;20272;-61
2021/03/19 02:51:28;;;;;;;12.77;7.80;;;2.90;76.20;;;;;;4984722;28;20230;-60
2021/03/19 02:53:55;;;;;;;11.67;7.70;;;3.00;76.90;;;;;;4987090;28;20210;-60
2021/03/19 02:56:22;;;;;;;12.13;8.60;;;3.00;76.00;;;;;;4966434;28;20220;-60
2021/03/19 02:58:49;;;;;;;9.80;7.40;;;3.00;75.90;;;;;;4979667;28;20220;-60
2021/03/19 03:01:15;;;;;;;12.40;7.63;;;2.90;75.80;;;;;;4966725;28;20478;-60
2021/03/19 03:03:42;;;;;;;11.20;7.97;;;2.90;76.10;;;;;;4969711;28;20212;-60
2021/03/19 03:06:09;;;;;;;11.70;7.97;;;2.80;75.90;;;;;;4969199;28;20244;-60
2021/03/19 03:08:37;;;;;;;11.30;7.90;;;2.80;76.10;;;;;;4972673;28;20316;-60
2021/03/19 03:11:03;;;;;;;9.63;7.40;;;2.80;76.00;;;;;;4971751;28;20240;-60
2021/03/19 03:13:31;;;;;;;9.60;7.73;;;2.60;75.90;;;;;;4969010;28;20209;-60
2021/03/19 03:15:59;;;;;;;12.03;7.93;;;2.60;76.20;;;;;;4963442;28;20201;-60
2021/03/19 03:18:25;;;;;;;15.53;9.00;;;2.50;76.40;;;;;;4967591;28;20505;-60
2021/03/19 03:20:55;;;;;;;11.53;7.67;;;2.50;76.50;;;;;;4964036;28;20237;-60
2021/03/19 03:23:24;;;;;;;10.17;7.27;;;2.50;76.40;;;;;;4993698;28;20240;-60
2021/03/19 03:25:53;;;;;;;10.70;7.63;;;2.40;76.10;;;;;;5003986;28;20602;-60
2021/03/19 03:28:20;;;;;;;12.07;7.07;;;2.40;76.30;;;;;;4994110;28;20804;-60
2021/03/19 03:30:58;;;;;;;12.20;8.23;;;2.40;76.50;;;;;;5004494;28;20215;-60
2021/03/19 03:33:25;;;;;;;13.23;8.23;;;2.40;76.50;;;;;;5012117;28;20212;-60
2021/03/19 03:35:54;;;;;;;9.00;6.93;;;2.30;76.50;;;;;;5011842;28;20218;-60
2021/03/19 03:38:24;;;;;;;10.40;7.00;;;2.30;77.00;;;;;;5003871;28;20652;-60
2021/03/19 03:41:04;;;;;;;11.17;8.50;;;2.40;77.40;;;;;;5006208;28;20557;-60
2021/03/19 03:43:31;;;;;;;11.83;8.10;;;2.40;77.40;;;;;;5005943;28;20203;-60
2021/03/19 03:45:58;;;;;;;12.37;8.00;;;2.50;77.60;;;;;;4984355;28;20209;-60
2021/03/19 03:48:29;;;;;;;10.20;7.60;;;2.60;77.70;;;;;;5004361;28;20208;-60
2021/03/19 03:50:57;;;;;;;13.63;8.10;;;2.60;77.80;;;;;;5002144;28;20219;-60
2021/03/19 03:53:24;;;;;;;12.77;8.03;;;2.60;78.00;;;;;;5002510;28;20243;-60
2021/03/19 03:55:51;;;;;;;12.13;8.07;;;2.60;78.20;;;;;;5001779;28;20210;-60
2021/03/19 03:58:19;;;;;;;21.20;9.33;;;2.50;78.20;;;;;;5018311;28;20223;-60
2021/03/19 04:00:46;;;;;;;10.93;9.00;;;2.40;78.20;;;;;;5001771;28;20345;-60
2021/03/19 04:03:14;;;;;;;13.83;8.33;;;2.30;78.50;;;;;;5016821;28;20298;-60
2021/03/19 04:05:45;;;;;;;11.53;8.13;;;2.20;79.00;;;;;;5006803;28;20236;-60
2021/03/19 04:08:19;;;;;;;11.40;8.07;;;2.20;79.20;;;;;;5009535;28;20212;-60
2021/03/19 04:10:48;;;;;;;16.03;8.77;;;2.10;79.10;;;;;;5009812;28;20211;-60
2021/03/19 04:13:16;;;;;;;12.73;9.47;;;2.10;79.20;;;;;;5000835;28;20223;-59
2021/03/19 04:15:44;;;;;;;11.23;7.63;;;2.20;79.20;;;;;;5009783;28;20406;-59
2021/03/19 04:18:14;;;;;;;11.63;8.93;;;2.20;79.10;;;;;;5006948;28;20654;-60
2021/03/19 04:20:44;;;;;;;11.33;8.47;;;2.30;79.10;;;;;;5008716;28;20534;-59
2021/03/19 04:23:25;;;;;;;10.60;7.77;;;2.30;78.70;;;;;;4974677;28;20328;-60
2021/03/19 04:25:53;;;;;;;16.63;9.23;;;2.30;78.70;;;;;;4961121;28;20216;-59
2021/03/19 04:28:22;;;;;;;22.23;8.43;;;2.20;78.70;;;;;;4972840;28;20243;-59
2021/03/19 04:30:49;;;;;;;11.07;7.67;;;2.20;79.00;;;;;;4972880;28;20304;-59
2021/03/19 04:33:22;;;;;;;13.60;8.77;;;2.20;79.00;;;;;;4969539;28;20219;-60
2021/03/19 04:36:01;;;;;;;13.43;8.40;;;2.20;78.80;;;;;;4969781;28;20245;-59
2021/03/19 04:38:29;;;;;;;12.53;7.90;;;2.10;78.60;;;;;;4969133;28;20294;-59
2021/03/19 04:40:56;;;;;;;9.60;8.20;;;2.00;78.30;;;;;;4973861;28;20209;-59
2021/03/19 04:43:23;;;;;;;11.57;7.90;;;2.00;78.30;;;;;;4971836;28;20310;-59
2021/03/19 04:45:50;;;;;;;11.93;8.40;;;1.90;78.50;;;;;;4966948;28;20334;-59
2021/03/19 04:48:16;;;;;;;11.07;8.23;;;1.80;78.50;;;;;;4961796;28;20298;-59
2021/03/19 04:50:43;;;;;;;11.20;8.53;;;1.80;78.70;;;;;;4975827;28;20251;-59
2021/03/19 04:53:10;;;;;;;10.57;7.53;;;1.80;78.80;;;;;;4967592;28;20234;-59
2021/03/19 04:55:37;;;;;;;12.67;7.87;;;1.70;78.40;;;;;;4974752;28;20209;-60
2021/03/19 04:58:03;;;;;;;12.23;8.27;;;1.50;77.90;;;;;;4972756;28;20248;-59
2021/03/19 05:00:30;;;;;;;12.23;8.53;;;1.40;78.80;;;;;;4969734;28;20205;-59
2021/03/19 05:02:57;;;;;;;12.13;8.00;;;1.40;79.10;;;;;;4975027;28;20633;-59
2021/03/19 05:05:27;;;;;;;13.27;8.83;;;1.30;79.10;;;;;;4970869;28;20217;-59
2021/03/19 05:07:54;;;;;;;11.63;8.53;;;1.40;79.40;;;;;;4974573;28;20219;-59
2021/03/19 05:10:26;;;;;;;13.60;8.63;;;1.30;79.80;;;;;;4985743;28;20222;-59
2021/03/19 05:12:54;;;;;;;14.70;8.60;;;1.30;80.10;;;;;;4973037;28;20278;-59
2021/03/19 05:15:22;;;;;;;13.00;8.33;;;1.40;80.40;;;;;;4976200;28;20219;-59
2021/03/19 05:17:49;;;;;;;13.73;9.57;;;1.40;80.50;;;;;;4973445;28;20235;-59
2021/03/19 05:20:17;;;;;;;12.93;8.90;;;1.40;80.50;;;;;;4969523;28;20222;-60
2021/03/19 05:22:45;;;;;;;18.30;8.47;;;1.50;80.50;;;;;;4984464;28;20336;-60
2021/03/19 05:25:18;;;;;;;12.27;8.63;;;1.50;80.40;;;;;;4974014;28;20232;-60
2021/03/19 05:27:45;;;;;;;12.00;9.10;;;1.50;80.30;;;;;;4966517;28;20248;-60
2021/03/19 05:30:14;;;;;;;13.27;8.97;;;1.50;80.20;;;;;;4978573;28;20253;-59
2021/03/19 05:32:41;;;;;;;14.03;8.67;;;1.60;80.30;;;;;;4967558;28;20229;-59
2021/03/19 05:35:11;;;;;;;14.67;8.73;;;1.60;80.30;;;;;;4972831;28;20209;-59
2021/03/19 05:37:38;;;;;;;12.17;8.43;;;1.70;80.10;;;;;;4970455;28;20599;-59
2021/03/19 05:40:11;;;;;;;13.43;7.93;;;1.70;80.00;;;;;;4971130;28;20205;-59
2021/03/19 05:42:39;;;;;;;11.90;8.90;;;1.80;79.90;;;;;;4975254;28;20599;-59
2021/03/19 05:45:29;;;;;;;12.57;9.43;;;1.80;79.80;;;;;;4972412;28;20214;-59
2021/03/19 05:47:58;;;;;;;13.20;9.10;;;1.90;79.90;;;;;;4966581;28;20227;-59
2021/03/19 05:50:32;;;;;;;14.87;7.67;;;2.00;80.00;;;;;;4980957;28;20218;-59
2021/03/19 05:53:18;;;;;;;11.37;8.63;;;2.10;80.10;;;;;;4981526;28;20251;-59
2021/03/19 05:55:45;;;;;;;14.90;8.10;;;2.30;79.90;;;;;;4965585;28;20205;-60
2021/03/19 05:58:22;;;;;;;11.50;8.17;;;2.50;79.50;;;;;;4985386;28;20212;-60
2021/03/19 06:00:57;;;;;;;13.33;7.67;;;2.70;79.60;;;;;;4971466;28;20655;-60
2021/03/19 06:03:25;;;;;;;11.43;7.57;;;3.00;79.40;;;;;;4974351;28;20208;-60
2021/03/19 06:06:10;;;;;;;10.33;7.97;;;3.30;78.90;;;;;;4971829;28;20205;-60
2021/03/19 06:08:43;;;;;;;14.70;9.03;;;3.50;78.10;;;;;;4969406;28;20225;-60
2021/03/19 06:11:22;;;;;;;11.07;7.93;;;3.80;78.30;;;;;;4970024;28;20225;-60
2021/03/19 06:14:15;;;;;;;15.07;8.17;;;4.00;77.00;;;;;;4970941;28;20220;-60
2021/03/19 06:16:52;;;;;;;11.10;7.60;;;4.20;76.30;;;;;;4972737;28;20533;-60
2021/03/19 06:19:33;;;;;;;11.13;7.53;;;4.50;75.90;;;;;;4963286;28;20221;-60
2021/03/19 06:22:17;;;;;;;12.50;7.63;;;4.70;75.20;;;;;;4973798;28;20250;-60
2021/03/19 06:25:20;;;;;;;9.57;7.60;;;4.90;74.70;;;;;;4983507;28;20248;-60
2021/03/19 06:27:55;;;;;;;9.40;7.53;;;5.10;73.80;;;;;;5008298;28;20216;-60
2021/03/19 06:30:36;;;;;;;13.20;7.27;;;5.20;73.20;;;;;;4986834;28;20212;-60
2021/03/19 06:33:12;;;;;;;11.30;6.33;;;5.30;73.00;;;;;;4995580;28;20685;-60
2021/03/19 06:36:16;;;;;;;6.83;5.47;;;5.30;73.00;;;;;;4989743;28;20263;-60
2021/03/19 06:38:49;;;;;;;8.83;5.53;;;5.30;73.10;;;;;;4988447;28;20227;-60
2021/03/19 06:41:22;;;;;;;6.83;4.40;;;5.40;73.40;;;;;;4990682;28;20236;-60
2021/03/19 06:44:11;;;;;;;6.40;4.07;;;5.50;73.60;;;;;;4987231;28;20232;-60
2021/03/19 06:46:54;;;;;;;5.77;4.33;;;5.60;73.80;;;;;;4980815;28;20205;-60
2021/03/19 06:49:23;;;;;;;4.30;3.90;;;5.70;73.80;;;;;;4986611;28;20213;-60
2021/03/19 06:51:53;;;;;;;6.90;4.47;;;5.80;73.90;;;;;;4983049;28;20291;-60
2021/03/19 06:54:25;;;;;;;6.93;4.70;;;6.00;73.80;;;;;;4986823;28;20214;-65
2021/03/19 06:57:04;;;;;;;6.60;4.80;;;6.10;73.40;;;;;;4989157;28;20623;-60
2021/03/19 06:59:41;;;;;;;6.40;4.00;;;6.30;73.40;;;;;;4988142;28;20208;-60
2021/03/19 07:02:32;;;;;;;5.07;4.57;;;6.40;73.10;;;;;;4984167;28;20508;-60
2021/03/19 07:05:16;;;;;;;7.40;4.23;;;6.60;72.80;;;;;;5000798;28;20311;-60
2021/03/19 07:08:14;;;;;;;4.93;3.83;;;6.80;72.10;;;;;;4992997;28;20681;-60
2021/03/19 07:10:58;;;;;;;5.07;4.17;;;6.90;71.90;;;;;;4996174;28;20212;-60
2021/03/19 07:13:49;;;;;;;5.47;4.77;;;7.00;71.80;;;;;;4986056;28;20236;-61
2021/03/19 07:16:28;;;;;;;6.33;3.83;;;7.10;71.60;;;;;;5003661;28;20215;-61
2021/03/19 07:19:02;;;;;;;5.43;4.47;;;7.20;71.00;;;;;;4982048;28;20223;-60
2021/03/19 07:21:52;;;;;;;7.07;4.50;;;7.30;70.30;;;;;;5003491;28;20760;-60
2021/03/19 07:24:47;;;;;;;6.00;4.27;;;7.30;69.70;;;;;;5010164;28;20592;-60
2021/03/19 07:27:40;;;;;;;5.90;4.50;;;7.40;69.70;;;;;;5000959;28;20247;-61
2021/03/19 07:30:40;;;;;;;5.00;4.50;;;7.50;70.60;;;;;;5008098;28;20670;-60
2021/03/19 07:33:32;;;;;;;5.53;4.67;;;7.60;70.20;;;;;;5007439;28;20232;-60
2021/03/19 07:36:27;;;;;;;5.47;4.50;;;7.70;69.10;;;;;;5001537;28;20208;-60
2021/03/19 07:39:05;;;;;;;5.23;4.47;;;7.80;69.10;;;;;;4996734;28;20208;-60
2021/03/19 07:41:32;;;;;;;12.60;4.37;;;7.90;69.60;;;;;;5012110;28;20288;-61
2021/03/19 07:44:14;;;;;;;6.27;4.60;;;8.10;68.90;;;;;;4991795;28;20239;-60
2021/03/19 07:46:54;;;;;;;6.63;4.00;;;8.30;68.70;;;;;;5009971;28;20208;-61
2021/03/19 07:49:47;;;;;;;6.40;4.50;;;8.40;68.00;;;;;;5009663;28;20294;-60
2021/03/19 07:52:34;;;;;;;6.43;4.30;;;8.60;67.40;;;;;;5009174;28;20290;-60
2021/03/19 07:55:32;;;;;;;8.33;4.50;;;8.80;66.80;;;;;;5011649;28;20216;-60
2021/03/19 07:58:32;;;;;;;6.10;4.50;;;8.90;66.30;;;;;;5008085;28;20208;-61
2021/03/19 08:01:40;;;;;;;5.20;4.40;;;9.10;66.20;;;;;;4991231;28;20212;-60
2021/03/19 08:04:35;;;;;;;6.33;4.80;;;9.30;66.10;;;;;;5012471;28;20222;-60
2021/03/19 08:07:33;;;;;;;7.03;4.73;;;9.50;65.80;;;;;;4998513;28;20212;-61
2021/03/19 08:10:23;;;;;;;8.17;5.00;;;9.60;65.90;;;;;;5011755;28;20299;-60
2021/03/19 08:13:13;;;;;;;5.93;4.70;;;10.00;65.50;;;;;;4992431;28;20227;-60
2021/03/19 08:15:48;;;;;;;6.40;5.00;;;10.20;64.40;;;;;;4999242;28;20212;-58
2021/03/19 08:18:44;;;;;;;7.90;4.87;;;10.30;64.00;;;;;;5016257;28;20302;-60
2021/03/19 08:21:37;;;;;;;6.63;5.33;;;10.50;64.20;;;;;;4999101;28;20204;-61
2021/03/19 08:24:18;;;;;;;7.87;5.20;;;10.50;63.90;;;;;;4995526;28;20248;-58
2021/03/19 08:26:51;;;;;;;8.20;5.47;;;10.60;63.60;;;;;;4996528;28;20296;-59
2021/03/19 08:29:36;;;;;;;6.70;5.07;;;10.60;63.30;;;;;;4995776;28;20208;-59
2021/03/19 08:32:19;;;;;;;7.57;5.60;;;10.60;63.00;;;;;;4957512;28;20238;-58
2021/03/19 08:35:10;;;;;;;7.90;5.20;;;10.60;62.70;;;;;;4976031;28;20217;-57
2021/03/19 08:37:52;;;;;;;6.17;4.70;;;10.70;62.90;;;;;;4986428;28;20210;-60
2021/03/19 08:40:28;;;;;;;6.77;5.13;;;10.80;62.60;;;;;;4987305;28;20256;-60
2021/03/19 08:42:57;;;;;;;7.83;5.67;;;11.00;61.70;;;;;;4977840;28;20643;-58
2021/03/19 08:45:27;;;;;;;5.03;4.43;;;11.10;61.50;;;;;;4975488;28;20213;-57
2021/03/19 08:47:56;;;;;;;5.10;4.57;;;11.20;60.70;;;;;;4976285;28;20429;-61
2021/03/19 08:50:27;;;;;;;6.00;4.53;;;11.30;60.20;;;;;;4977559;28;20217;-58
2021/03/19 08:53:16;;;;;;;5.70;4.90;;;11.40;58.70;;;;;;4978639;28;20232;-57
2021/03/19 08:56:02;;;;;;;10.13;4.13;;;11.40;58.10;;;;;;4973324;28;20272;-59
2021/03/19 08:58:29;;;;;;;5.87;4.13;;;11.50;58.40;;;;;;4977451;28;20638;-57
2021/03/19 09:00:58;;;;;;;6.33;4.67;;;11.60;57.20;;;;;;4968713;28;20221;-61
2021/03/19 09:03:37;;;;;;;4.90;4.40;;;11.80;57.60;;;;;;4973439;28;20224;-58
2021/03/19 09:06:04;;;;;;;5.40;4.13;;;12.10;55.80;;;;;;4972581;28;20564;-58
2021/03/19 09:08:43;;;;;;;4.47;3.87;;;12.30;55.30;;;;;;4967174;28;20654;-60
2021/03/19 09:11:19;;;;;;;7.60;3.73;;;12.50;55.00;;;;;;4974043;28;20662;-59
2021/03/19 09:14:04;;;;;;;3.97;3.57;;;12.80;52.60;;;;;;4977856;28;20212;-58
2021/03/19 09:16:43;;;;;;;5.43;3.30;;;12.80;50.90;;;;;;4976364;28;20213;-58
2021/03/19 09:19:31;;;;;;;3.93;3.60;;;12.90;50.70;;;;;;4972950;28;20209;-58
2021/03/19 09:22:20;;;;;;;4.13;3.37;;;12.90;50.40;;;;;;4988207;28;20292;-57
2021/03/19 09:25:10;;;;;;;4.77;3.87;;;13.00;50.10;;;;;;4972958;28;20205;-57
2021/03/19 09:27:47;;;;;;;4.33;3.93;;;12.80;50.40;;;;;;4970322;28;20324;-59
2021/03/19 09:30:14;;;;;;;4.97;3.83;;;12.80;50.50;;;;;;4971643;28;20213;-61
2021/03/19 09:32:45;;;;;;;4.50;3.53;;;12.80;49.50;;;;;;4975518;28;20237;-60
2021/03/19 09:35:31;;;;;;;5.60;4.47;;;12.80;48.60;;;;;;4973115;28;20275;-58
2021/03/19 09:37:58;;;;;;;4.47;4.10;;;12.90;48.90;;;;;;4972455;28;20213;-58
2021/03/19 09:40:48;;;;;;;4.07;3.57;;;13.10;47.80;;;;;;4972538;28;20278;-58
2021/03/19 09:43:33;;;;;;;4.77;4.23;;;13.00;46.10;;;;;;4969510;28;20213;-58
2021/03/19 09:46:12;;;;;;;3.90;3.50;;;12.70;46.60;;;;;;4962396;28;20209;-60
2021/03/19 09:48:51;;;;;;;4.73;3.87;;;12.60;47.70;;;;;;4975417;28;20220;-58
2021/03/19 09:51:28;;;;;;;6.43;4.23;;;12.90;46.70;;;;;;4975217;28;20208;-58
2021/03/19 09:53:56;;;;;;;4.20;3.37;;;13.20;47.10;;;;;;4990698;28;20212;-56
2021/03/19 09:56:26;;;;;;;7.00;4.13;;;13.50;45.70;;;;;;4966881;28;20296;-58
2021/03/19 09:58:57;;;;;;;4.20;3.77;;;13.70;44.80;;;;;;4970135;28;20336;-58
2021/03/19 10:01:32;;;;;;;3.43;3.13;;;13.70;43.70;;;;;;4973522;28;20213;-58
2021/03/19 10:04:06;;;;;;;5.17;3.60;;;13.80;44.20;;;;;;4972483;28;20232;-59
2021/03/19 10:06:35;;;;;;;3.67;3.20;;;13.80;42.30;;;;;;4989800;28;20296;-59
2021/03/19 10:09:07;;;;;;;4.23;3.00;;;13.40;42.20;;;;;;4963793;28;20214;-58
2021/03/19 10:11:35;;;;;;;5.27;3.47;;;13.20;43.80;;;;;;4974125;28;20290;-57
2021/03/19 10:14:39;;;;;;;4.00;3.47;;;13.40;44.40;;;;;;4961592;28;20297;-57
2021/03/19 10:17:11;;;;;;;4.00;3.50;;;13.80;43.30;;;;;;4953206;28;20201;-58
2021/03/19 10:19:40;;;;;;;5.63;3.20;;;14.20;41.00;;;;;;4967355;28;20244;-58
2021/03/19 10:22:09;;;;;;;3.43;3.00;;;14.50;40.70;;;;;;4971535;28;20218;-57
2021/03/19 10:24:37;;;;;;;3.50;3.20;;;14.70;40.90;;;;;;4989214;28;20236;-60
2021/03/19 10:27:31;;;;;;;4.10;3.70;;;15.00;40.60;;;;;;4995972;28;20209;-60
2021/03/19 10:30:03;;;;;;;3.93;3.13;;;15.20;40.50;;;;;;4993182;28;20212;-59
2021/03/19 10:32:30;;;;;;;4.67;3.27;;;15.50;39.60;;;;;;5004240;28;20236;-57
2021/03/19 10:35:03;;;;;;;4.30;3.70;;;15.50;39.20;;;;;;5011958;28;20427;-61
2021/03/19 10:37:38;;;;;;;5.90;3.93;;;15.50;39.20;;;;;;4999097;28;20694;-57
2021/03/19 10:40:11;;;;;;;4.20;3.80;;;15.30;39.00;;;;;;4992766;28;20298;-58
2021/03/19 10:42:52;;;;;;;5.77;3.90;;;14.80;39.80;;;;;;5003488;28;20216;-60
2021/03/19 10:45:39;;;;;;;2.67;2.13;;;14.80;39.10;;;;;;5000947;28;20252;-59
2021/03/19 10:48:14;;;;;;;4.50;3.20;;;15.20;38.10;;;;;;5010564;28;20303;-57
2021/03/19 10:51:07;;;;;;;3.27;2.80;;;15.50;38.30;;;;;;5000358;28;20234;-59
2021/03/19 10:53:50;;;;;;;3.27;2.97;;;15.70;37.10;;;;;;4986299;28;20674;-58
2021/03/19 10:56:18;;;;;;;3.80;3.40;;;15.40;37.50;;;;;;5006053;28;20212;-60
2021/03/19 10:58:54;;;;;;;3.73;3.17;;;14.80;39.00;;;;;;5012433;28;20219;-60
2021/03/19 11:01:31;;;;;;;5.00;3.10;;;14.10;41.00;;;;;;5008472;28;20219;-61
2021/03/19 11:04:32;;;;;;;4.60;3.80;;;13.30;42.40;;;;;;5000849;28;20290;-58
2021/03/19 11:07:28;;;;;;;4.03;3.00;;;12.60;43.90;;;;;;5002316;28;20293;-59
2021/03/19 11:10:10;;;;;;;3.13;2.77;;;11.70;47.00;;;;;;4990818;28;20351;-57
2021/03/19 11:12:39;;;;;;;6.70;2.67;;;11.10;50.30;;;;;;5008198;28;20237;-61
2021/03/19 11:15:12;;;;;;;4.30;3.03;;;10.60;52.20;;;;;;5000440;28;20232;-61
2021/03/19 11:17:40;;;;;;;4.20;3.80;;;9.80;55.00;;;;;;5005811;28;20226;-57
2021/03/19 11:20:21;;;;;;;3.77;3.07;;;9.10;57.20;;;;;;5009879;28;20222;-59
2021/03/19 11:22:49;;;;;;;3.90;3.00;;;8.50;60.40;;;;;;4986862;28;20244;-57
2021/03/19 11:25:24;;;;;;;10.57;2.97;;;8.10;61.10;;;;;;4990375;28;20271;-57
2021/03/19 11:27:51;;;;;;;2.70;2.43;;;8.10;59.70;;;;;;4982033;28;20634;-59
2021/03/19 11:30:24;;;;;;;3.30;3.10;;;8.20;59.10;;;;;;4992281;28;20308;-59
2021/03/19 11:33:07;;;;;;;5.53;3.20;;;8.50;58.00;;;;;;4976920;28;20233;-58
2021/03/19 11:35:36;;;;;;;3.57;2.80;;;8.80;57.60;;;;;;4987719;28;20213;-61
2021/03/19 11:38:12;;;;;;;3.90;3.10;;;9.20;58.40;;;;;;4991319;28;20218;-60
2021/03/19 11:40:43;;;;;;;4.37;2.50;;;9.40;57.20;;;;;;4988210;28;20263;-61
2021/03/19 11:43:11;;;;;;;3.17;2.70;;;9.70;57.50;;;;;;4999671;28;20213;-60
2021/03/19 11:45:46;;;;;;;3.30;2.70;;;10.00;56.20;;;;;;4990979;28;20407;-60
2021/03/19 11:48:19;;;;;;;3.20;2.70;;;10.20;56.20;;;;;;4988530;28;20657;-60
2021/03/19 11:51:10;;;;;;;4.30;3.10;;;10.40;56.00;;;;;;4985322;28;20236;-60
2021/03/19 11:53:37;;;;;;;4.50;3.60;;;10.60;56.30;;;;;;4991215;28;20220;-56
2021/03/19 11:56:11;;;;;;;3.93;3.30;;;10.70;55.70;;;;;;4987805;28;20212;-60
2021/03/19 11:58:38;;;;;;;4.63;2.90;;;10.90;55.30;;;;;;5002050;28;20206;-59
2021/03/19 12:01:08;;;;;;;5.40;3.07;;;11.00;52.70;;;;;;4990992;28;20223;-58
2021/03/19 12:03:41;;;;;;;3.20;2.90;;;11.10;52.80;;;;;;4988954;28;20244;-58
2021/03/19 12:06:12;;;;;;;3.10;2.73;;;11.10;51.70;;;;;;4986526;28;20275;-59
2021/03/19 12:08:40;;;;;;;3.50;3.13;;;11.20;51.80;;;;;;4988634;28;20205;-59
2021/03/19 12:11:11;;;;;;;3.03;2.70;;;11.30;52.60;;;;;;4987768;28;20232;-58
2021/03/19 12:13:38;;;;;;;4.73;3.27;;;11.50;52.60;;;;;;4991242;28;20234;-62
2021/03/19 12:16:05;;;;;;;3.33;3.03;;;11.70;50.10;;;;;;4992237;28;20274;-63
2021/03/19 12:18:32;;;;;;;4.87;3.20;;;11.80;52.20;;;;;;4992084;28;20595;-59
2021/03/19 12:21:00;;;;;;;2.93;2.63;;;11.90;51.40;;;;;;4990735;28;20211;-60
2021/03/19 12:23:27;;;;;;;3.00;2.70;;;11.90;51.10;;;;;;5002720;28;20244;-57
2021/03/19 12:25:55;;;;;;;5.33;2.67;;;12.00;49.20;;;;;;5007969;28;20299;-63
2021/03/19 12:28:24;;;;;;;3.80;2.70;;;11.90;47.70;;;;;;5011923;28;20342;-60
2021/03/19 12:30:53;;;;;;;3.70;2.70;;;11.80;48.70;;;;;;5007365;28;20239;-59
2021/03/19 12:33:24;;;;;;;3.53;2.80;;;11.70;50.00;;;;;;5010491;28;20278;-60
2021/03/19 12:35:52;;;;;;;5.53;2.97;;;11.60;48.10;;;;;;5009463;28;20207;-57
2021/03/19 12:38:20;;;;;;;2.80;2.50;;;11.50;49.00;;;;;;5012257;28;20200;-60
2021/03/19 12:40:47;;;;;;;3.03;2.73;;;11.40;48.70;;;;;;5006868;28;20273;-62
2021/03/19 12:43:15;;;;;;;2.70;2.50;;;11.40;47.60;;;;;;5011796;28;20311;-61
2021/03/19 12:45:42;;;;;;;2.90;2.60;;;11.20;47.20;;;;;;5006263;28;20658;-58
2021/03/19 12:48:10;;;;;;;3.83;2.47;;;11.20;48.60;;;;;;4987209;28;20651;-58
2021/03/19 12:50:37;;;;;;;3.33;2.90;;;11.10;48.40;;;;;;5008635;28;20772;-60
2021/03/19 12:53:06;;;;;;;3.80;2.50;;;10.90;48.60;;;;;;5011584;28;20654;-59
2021/03/19 12:55:34;;;;;;;2.33;2.13;;;10.90;48.90;;;;;;5009799;28;20215;-60
2021/03/19 12:58:03;;;;;;;2.30;2.00;;;10.80;49.20;;;;;;5010876;28;20287;-59
2021/03/19 13:00:33;;;;;;;2.60;2.40;;;10.70;49.80;;;;;;5009373;28;20209;-59
2021/03/19 13:03:01;;;;;;;3.00;2.20;;;10.60;48.60;;;;;;5007925;28;20607;-59
2021/03/19 13:05:29;;;;;;;3.20;2.30;;;10.50;49.30;;;;;;5008284;28;20287;-60
2021/03/19 13:07:57;;;;;;;3.07;2.40;;;10.20;48.90;;;;;;5005571;28;20212;-59
2021/03/19 13:10:26;;;;;;;3.33;2.23;;;10.20;50.30;;;;;;5003455;28;20215;-59
2021/03/19 13:12:54;;;;;;;2.87;2.47;;;10.30;50.00;;;;;;4996826;28;20683;-59
2021/03/19 13:15:23;;;;;;;3.80;2.27;;;10.30;49.70;;;;;;5011552;28;20216;-59
2021/03/19 13:17:51;;;;;;;5.17;2.13;;;10.50;50.00;;;;;;5012714;28;20204;-59
2021/03/19 13:20:20;;;;;;;2.57;1.97;;;10.60;49.70;;;;;;5006837;28;20208;-59
2021/03/19 13:22:48;;;;;;;4.90;2.07;;;10.80;48.60;;;;;;5013180;28;20294;-59
2021/03/19 13:25:20;;;;;;;3.43;2.07;;;10.90;48.20;;;;;;5014284;28;20656;-59
2021/03/19 13:27:47;;;;;;;2.93;2.60;;;10.90;48.10;;;;;;5009174;28;20685;-59
2021/03/19 13:30:27;;;;;;;3.50;2.07;;;10.90;49.60;;;;;;4986929;28;20217;-58
2021/03/19 13:32:56;;;;;;;3.43;2.30;;;10.90;49.20;;;;;;5010903;28;20341;-59